Date,TemperatureHighF,TemperatureAvgF,TemperatureLowF,DewpointHighF,DewpointAvgF,DewpointLowF,HumidityHigh,HumidityAvg,HumidityLow,PressureMaxIn,PressureMinIn,WindSpeedMaxMPH,WindSpeedAvgMPH,GustSpeedMaxMPH,PrecipitationSumIn
2013-1-1,50.2,39.0,29.8,29.5,23.4,18.5,77,55,29,30.18,30.06,6,0,6,0.00
2013-1-2,56.5,40.8,29.7,27.0,18.5,8.0,65,44,17,30.10,29.99,9,0,9,0.00
2013-1-3,59.5,42.8,31.8,21.5,17.3,9.2,54,38,16,30.15,29.99,7,0,9,0.00
2013-1-4,58.0,41.6,29.7,24.0,14.1,4.0,53,36,12,30.23,30.11,6,0,6,0.00
2013-1-5,59.3,43.5,31.9,21.9,16.7,8.2,51,36,17,30.27,30.10,8,0,8,0.00
2013-1-6,49.4,40.4,33.1,35.2,29.8,19.2,88,67,44,30.12,29.92,5,1,7,0.15
2013-1-7,60.2,44.6,32.5,33.7,23.2,13.4,89,48,18,29.99,29.88,30,5,30,0.00
2013-1-8,68.6,50.9,36.9,35.0,25.6,14.2,59,40,20,30.08,29.92,12,0,12,0.00
2013-1-9,48.2,45.9,44.2,31.2,29.7,28.4,60,53,48,30.02,30.00,2,0,2,0.00
2013-1-10,44.2,39.0,32.4,40.9,27.6,14.2,89,66,40,29.99,29.80,21,3,21,0.17
2013-1-11,44.1,35.7,27.0,24.3,17.2,13.0,71,47,33,30.10,29.97,16,3,16,0.00
2013-1-12,45.1,32.1,23.6,18.5,14.6,6.8,74,51,24,30.10,29.98,11,0,11,0.00
2013-1-13,45.4,32.7,22.9,17.4,12.0,3.5,62,44,19,30.13,30.00,13,0,13,0.00
2013-1-14,46.2,32.3,19.2,11.6,3.4,-6.2,59,33,12,30.30,30.07,22,2,22,0.00
2013-1-15,54.1,38.6,26.6,21.2,12.8,1.4,58,36,22,30.39,30.25,9,1,9,0.00
2013-1-16,62.0,45.4,33.5,26.2,22.4,19.2,62,43,20,30.31,30.09,9,1,9,0.00
2013-1-17,66.0,48.2,36.2,24.4,18.5,11.1,50,33,14,30.19,30.03,8,0,8,0.00
2013-1-18,67.9,49.3,35.9,26.3,19.4,13.6,48,33,15,30.15,30.02,7,0,7,0.00
2013-1-19,67.9,50.4,36.8,24.3,17.4,11.8,47,29,12,30.16,30.05,10,0,10,0.00
2013-1-20,69.9,50.4,36.9,25.6,14.7,6.6,41,26,9,30.13,29.97,5,0,6,0.00
2013-1-21,70.8,51.7,38.3,20.6,12.6,-1.1,35,23,6,30.08,29.98,9,0,9,0.00
2013-1-22,72.8,53.8,38.8,21.4,14.2,-0.8,35,23,7,30.10,29.96,11,1,11,0.00
2013-1-23,72.5,60.6,49.2,40.5,30.7,17.8,58,34,20,30.03,29.90,12,0,12,0.00
2013-1-24,59.2,52.0,46.5,52.7,46.0,34.8,90,80,51,30.11,29.97,7,0,7,0.40
2013-1-25,55.9,53.0,50.7,52.7,49.3,46.3,90,87,75,30.06,29.85,10,0,10,0.41
2013-1-26,57.2,52.3,49.1,51.3,48.8,46.3,91,88,74,29.88,29.77,6,0,6,0.12
2013-1-27,50.7,46.1,34.9,48.2,41.4,30.1,91,84,68,29.94,29.85,15,2,15,0.07
2013-1-28,47.6,38.9,30.4,31.2,25.3,18.8,85,60,38,30.11,29.92,18,3,18,0.02
2013-1-29,49.8,38.4,28.4,36.2,28.9,20.8,83,69,46,30.17,30.07,6,0,7,0.00
2013-1-30,62.6,47.4,36.2,37.0,32.6,27.9,78,59,31,30.26,30.12,10,1,10,0.00
2013-1-31,68.1,51.6,38.8,36.7,32.4,28.3,71,51,24,30.17,30.03,11,0,11,0.00
2013-2-1,69.6,54.1,42.5,38.5,31.6,24.7,67,46,20,30.12,30.03,10,0,10,0.00
2013-2-2,70.3,56.8,46.2,44.6,35.7,26.4,61,46,24,30.15,30.02,6,0,6,0.00
2013-2-3,66.4,53.9,43.3,44.8,40.6,35.4,82,63,35,30.03,29.89,8,0,8,0.02
2013-2-4,67.9,52.6,41.3,42.0,35.9,27.9,79,56,24,30.01,29.89,13,0,13,0.00
2013-2-5,63.7,49.1,39.2,46.8,38.9,27.5,90,69,38,29.97,29.87,12,1,12,0.00
2013-2-6,56.7,46.2,37.3,44.7,40.2,32.9,91,80,60,30.02,29.88,10,1,10,0.00
2013-2-7,60.9,46.8,34.4,43.4,37.1,27.5,86,71,36,30.07,29.86,12,1,12,0.01
2013-2-8,42.2,34.6,27.5,36.7,31.0,24.2,89,87,75,29.91,29.81,13,0,13,0.41
2013-2-9,34.0,28.2,22.2,31.2,25.4,18.8,90,89,87,29.98,29.86,0,0,0,0.01
2013-2-10,42.9,37.1,28.2,34.4,30.2,24.6,86,76,58,30.03,29.95,3,0,7,0.02
2013-2-11,49.6,40.2,30.4,31.0,17.8,4.0,85,45,17,30.17,29.96,24,4,24,0.00
2013-2-12,55.1,40.1,27.5,26.7,18.9,11.6,68,45,22,30.29,30.17,9,0,9,0.00
2013-2-13,63.4,46.4,32.1,32.1,23.8,14.8,65,45,19,30.21,30.06,10,0,10,0.00
2013-2-14,41.5,38.4,36.5,28.1,26.6,25.5,66,62,54,30.08,30.04,2,0,2,0.00
2013-2-15,68.9,55.9,38.2,33.5,25.5,16.7,55,33,17,30.19,30.06,9,0,9,0.00
2013-2-16,72.0,53.2,39.5,36.2,18.7,6.7,46,28,8,30.15,29.90,10,1,10,0.00
2013-2-17,63.4,48.7,35.8,36.7,24.8,16.6,74,43,18,29.93,29.82,11,1,11,0.00
2013-2-18,60.1,45.8,34.4,41.7,32.1,25.0,86,61,29,29.99,29.84,12,1,12,0.00
2013-2-19,44.6,39.9,31.9,38.3,35.1,28.5,88,83,63,29.88,29.60,10,1,10,0.52
2013-2-20,46.5,36.8,31.0,35.3,30.2,27.0,89,78,56,29.95,29.57,22,2,22,0.33
2013-2-21,50.2,39.0,31.0,34.6,28.7,21.5,86,68,43,30.04,29.89,7,0,7,0.01
2013-2-22,56.7,42.0,28.5,32.4,25.1,17.8,75,54,27,30.12,30.02,8,0,8,0.00
2013-2-23,56.5,44.5,32.7,36.1,28.5,22.9,79,56,30,30.09,29.85,10,1,10,0.00
2013-2-24,59.0,44.7,31.3,30.9,11.2,-4.6,73,29,8,30.13,29.83,30,2,30,0.00
2013-2-25,60.7,44.7,31.0,24.8,16.9,5.8,67,36,14,30.19,29.99,10,1,10,0.00
2013-2-26,65.0,46.3,29.4,28.6,20.4,11.7,68,40,14,30.06,29.91,13,1,13,0.00
2013-2-27,39.1,35.8,34.4,17.6,16.2,14.4,49,44,37,30.08,30.06,2,0,2,0.00
2013-2-28,69.1,51.5,35.6,25.2,16.5,7.6,45,28,11,30.28,30.18,3,0,10,0.00
2013-3-1,74.4,57.1,41.3,34.1,24.3,16.1,48,30,13,30.27,30.10,5,0,18,0.00
2013-3-2,76.3,58.7,44.2,34.4,25.4,14.9,49,31,10,30.18,29.99,5,1,15,0.00
2013-3-3,67.8,57.8,42.9,38.6,30.8,21.2,74,39,19,29.99,29.84,10,1,10,0.00
2013-3-4,43.9,42.4,41.2,38.7,36.4,34.6,86,79,74,29.91,29.88,9,1,9,0.00
2013-3-5,66.4,51.9,39.8,48.0,40.9,33.4,90,68,30,30.02,29.90,5,1,14,0.02
2013-3-6,55.0,46.1,41.8,42.9,39.9,37.5,91,80,55,30.05,29.92,4,1,10,0.03
2013-3-7,48.9,43.2,36.5,42.5,39.1,33.0,89,86,74,29.91,29.78,9,1,9,0.21
2013-3-8,43.8,38.7,34.1,37.1,34.1,30.4,89,83,68,29.96,29.67,13,1,13,0.96
2013-3-9,53.1,41.1,37.8,42.0,36.8,34.5,89,85,60,30.13,29.95,7,0,7,0.22
2013-3-10,66.3,49.6,35.2,35.3,28.8,16.3,86,51,19,30.18,30.08,11,0,11,0.00
2013-3-11,70.8,53.8,38.6,35.5,28.2,16.9,62,41,16,30.12,29.97,9,1,9,0.00
2013-3-12,76.0,55.7,43.5,39.6,30.5,20.6,63,42,17,30.00,29.93,10,0,10,0.00
2013-3-13,81.6,64.0,48.6,45.1,34.9,28.4,57,37,16,30.04,29.93,3,0,10,0.00
2013-3-14,85.5,66.2,51.6,47.0,37.2,28.6,58,37,13,30.00,29.90,3,0,14,0.00
2013-3-15,79.2,65.2,51.9,47.5,37.9,32.9,61,39,20,29.92,29.83,10,0,10,0.00
2013-3-16,71.3,56.5,43.5,45.7,37.4,25.9,81,52,25,29.86,29.75,5,1,11,0.00
2013-3-17,68.1,52.8,40.8,50.9,42.3,36.7,89,70,36,29.89,29.76,6,1,11,0.00
2013-3-18,65.5,50.9,39.2,51.5,44.2,36.2,91,79,52,29.97,29.83,10,2,10,0.01
2013-3-19,67.1,51.5,42.8,50.1,44.1,39.1,92,77,47,30.03,29.91,8,1,8,0.00
2013-3-20,66.6,55.5,46.1,48.8,43.2,37.4,86,65,37,30.01,29.85,11,1,11,0.00
2013-3-21,67.4,54.2,43.5,48.9,44.0,40.2,90,71,41,29.85,29.70,9,1,11,0.00
2013-3-22,69.3,53.1,41.2,46.3,41.5,33.1,90,69,28,29.82,29.65,11,1,11,0.00
2013-3-23,72.8,54.3,35.9,45.8,32.8,12.0,86,52,10,29.90,29.77,13,1,13,0.00
2013-3-24,46.7,43.5,41.1,40.5,32.9,30.0,79,66,61,29.92,29.85,0,0,0,0.00
2013-3-25,76.3,58.0,43.1,43.7,34.1,27.1,72,45,18,29.89,29.79,3,0,12,0.00
2013-3-26,71.1,56.0,43.8,44.9,35.9,29.0,75,50,24,29.85,29.77,19,1,19,0.00
2013-3-27,68.9,53.7,41.8,45.6,39.8,34.4,85,63,33,29.94,29.78,9,1,9,0.00
2013-3-28,72.7,55.7,39.6,47.2,39.8,29.9,87,60,22,29.96,29.88,11,1,11,0.00
2013-3-29,76.0,59.3,43.5,49.2,40.2,32.9,85,54,24,30.00,29.92,11,1,11,0.00
2013-3-30,72.0,59.2,46.0,50.5,43.2,34.5,89,60,28,30.02,29.88,12,1,12,0.00
2013-3-31,66.0,53.4,41.9,48.3,43.6,37.0,87,71,45,30.01,29.92,10,1,10,0.00
2013-4-1,49.4,46.7,43.5,45.5,42.9,38.7,89,86,82,30.05,29.94,7,1,7,0.00
2013-4-2,68.4,55.3,42.3,47.5,44.0,38.4,89,68,43,29.98,29.86,3,1,11,0.00
2013-4-3,79.2,60.2,42.5,45.7,39.2,32.8,85,52,19,29.98,29.88,6,1,13,0.00
2013-4-4,74.4,59.5,45.7,47.3,40.5,28.8,84,54,19,29.97,29.89,5,1,12,0.00
2013-4-5,65.5,52.7,42.5,49.7,44.9,36.8,89,76,50,29.99,29.90,10,1,10,0.00
2013-4-6,67.3,55.2,47.4,49.8,47.4,43.1,91,77,47,29.95,29.84,13,1,13,0.00
2013-4-7,68.3,54.0,43.9,50.4,45.8,40.5,90,75,50,29.89,29.69,10,1,10,0.00
2013-4-8,52.2,47.5,43.5,47.6,42.5,32.4,91,83,58,29.73,29.54,13,1,15,0.36
2013-4-9,66.9,52.4,40.6,38.2,25.9,9.8,82,41,12,29.92,29.71,19,3,19,0.00
2013-4-10,77.6,59.8,40.6,31.1,21.6,10.0,63,26,9,29.99,29.81,21,2,21,0.00
2013-4-11,76.0,57.2,41.3,44.6,31.8,19.9,81,43,17,29.94,29.67,11,0,11,0.00
2013-4-12,77.9,57.6,41.3,51.5,44.4,37.7,90,66,30,29.77,29.64,13,1,13,0.00
2013-4-13,72.7,57.2,44.6,51.1,44.7,34.6,90,65,42,29.76,29.70,11,1,11,0.00
2013-4-14,52.9,48.6,45.8,47.6,44.3,42.2,90,85,73,29.77,29.67,7,1,7,0.00
2013-4-15,58.6,49.8,44.9,46.4,43.2,40.2,91,79,56,29.79,29.71,7,1,10,0.01
2013-4-16,58.0,46.7,38.9,40.5,34.4,20.3,83,64,37,29.89,29.74,14,2,14,0.00
2013-4-17,66.8,51.8,36.5,24.5,14.7,2.5,55,27,9,30.05,29.85,20,3,20,0.00
2013-4-18,70.3,52.7,35.6,18.2,12.6,7.0,41,22,10,30.14,30.02,15,1,15,0.00
2013-4-19,78.6,59.0,39.5,22.9,14.5,5.2,36,20,8,30.11,29.89,10,0,10,0.00
2013-4-20,85.1,63.6,44.1,42.5,28.5,16.7,63,31,11,29.90,29.77,15,0,15,0.00
2013-4-21,84.5,65.5,47.0,38.5,32.1,25.5,62,33,13,29.89,29.82,12,1,12,0.00
2013-4-22,77.4,60.3,43.9,44.0,37.4,30.8,85,46,22,29.87,29.75,10,1,10,0.00
2013-4-23,79.2,60.3,43.2,47.4,42.4,32.5,91,59,19,29.83,29.74,13,1,13,0.00
2013-4-24,49.9,48.5,45.5,46.4,44.4,41.8,89,86,80,29.79,29.74,3,0,3,0.00
2013-4-25,64.7,51.9,44.5,46.5,43.8,39.0,90,75,48,30.03,29.80,2,0,9,0.01
2013-4-26,78.8,61.5,40.3,47.0,41.9,35.5,89,54,23,30.05,29.99,10,1,10,0.01
2013-4-27,84.5,65.4,46.5,47.7,37.4,30.6,74,40,15,30.04,29.88,12,0,12,0.00
2013-4-28,86.7,67.2,49.4,50.0,38.2,27.9,68,39,13,29.88,29.74,9,0,9,0.00
2013-4-29,85.9,66.3,48.5,50.2,41.6,23.3,78,44,20,29.77,29.64,12,1,12,0.00
2013-4-30,74.2,58.2,43.9,52.0,46.0,40.0,87,67,36,29.76,29.65,12,1,12,0.00
2013-5-1,84.3,64.1,50.2,51.0,36.1,4.0,88,47,6,29.99,29.74,13,1,13,0.00
2013-5-2,84.0,65.1,45.8,26.5,12.0,-0.9,32,15,5,30.05,29.92,12,1,12,0.00
2013-5-3,88.0,67.7,48.2,26.1,13.5,3.7,27,14,6,29.96,29.68,15,1,15,0.00
2013-5-4,79.4,62.3,46.0,47.9,26.7,12.4,84,31,9,29.70,29.59,12,1,12,0.00
2013-5-5,63.4,54.6,48.9,47.6,43.3,39.6,86,67,44,29.84,29.67,12,2,12,0.00
2013-5-6,59.5,51.8,48.2,51.5,46.7,42.4,89,83,63,29.93,29.79,11,1,11,0.22
2013-5-7,62.0,51.6,45.8,46.5,42.4,38.3,86,72,52,29.97,29.88,9,1,9,0.17
2013-5-8,62.6,53.5,46.7,47.5,44.5,41.0,89,72,56,29.99,29.93,9,1,9,0.00
2013-5-9,67.1,54.3,41.3,53.8,46.2,38.0,90,75,49,30.00,29.92,9,0,9,0.24
2013-5-10,80.3,63.5,46.2,57.0,49.6,40.8,91,65,30,29.98,29.88,13,1,13,0.01
2013-5-11,91.6,71.9,52.6,52.0,42.6,28.4,81,42,11,29.95,29.85,14,1,14,0.00
2013-5-12,93.2,74.9,57.6,47.2,37.6,25.4,55,30,9,29.94,29.80,11,0,11,0.00
2013-5-13,94.9,76.6,59.6,46.0,38.3,30.7,50,28,11,29.87,29.76,13,1,13,0.00
2013-5-14,87.0,73.2,51.3,45.2,35.7,24.3,64,29,12,29.84,29.77,9,1,13,0.00
2013-5-15,80.3,62.7,46.0,49.7,41.9,32.4,83,51,23,29.90,29.81,9,1,9,0.00
2013-5-16,75.8,59.7,46.0,53.0,48.2,42.8,90,69,34,29.84,29.76,11,1,11,0.00
2013-5-17,71.3,58.3,52.8,55.8,50.0,45.4,91,76,43,29.90,29.74,11,1,11,0.01
2013-5-18,73.5,60.1,50.4,53.1,49.4,45.2,90,70,41,29.91,29.83,13,1,13,0.00
2013-5-19,81.6,63.8,48.0,54.8,48.6,43.7,88,62,28,29.88,29.74,10,0,10,0.00
2013-5-20,89.9,69.4,49.5,51.9,40.4,23.4,82,44,10,29.82,29.74,12,0,12,0.00
2013-5-21,86.1,69.2,52.9,50.5,42.2,32.7,70,41,18,29.79,29.68,10,0,10,0.00
2013-5-22,79.2,62.1,46.1,51.8,44.7,36.4,87,57,26,29.70,29.63,13,1,13,0.00
2013-5-23,73.7,58.9,51.0,48.5,45.3,42.1,83,63,34,29.83,29.66,11,1,11,0.00
2013-5-24,75.3,59.9,48.9,50.3,45.3,39.9,80,61,31,29.86,29.75,15,0,15,0.00
2013-5-25,74.9,57.7,39.9,50.8,43.0,34.3,89,63,24,29.90,29.82,10,0,10,0.00
2013-5-26,74.6,58.0,42.2,49.6,44.9,37.1,86,65,34,29.92,29.85,11,1,11,0.00
2013-5-27,77.2,60.1,46.1,51.7,48.0,41.3,89,67,33,29.87,29.74,15,1,15,0.00
2013-5-28,71.6,58.1,51.9,54.4,50.8,47.5,91,78,50,29.75,29.63,9,0,9,0.01
2013-5-29,83.8,64.0,46.2,55.5,48.9,42.8,90,63,27,29.72,29.62,11,0,11,0.00
2013-5-30,87.0,67.0,48.9,54.9,49.3,42.9,85,57,27,29.74,29.62,9,0,9,0.00
2013-5-31,90.3,69.4,48.9,56.8,50.8,44.6,87,57,26,29.76,29.69,11,0,11,0.00
2013-6-1,99.4,77.1,58.9,57.2,43.8,25.5,80,38,8,29.71,29.58,10,0,10,0.00
2013-6-2,89.0,71.0,53.8,57.8,51.1,39.5,87,53,25,29.66,29.58,11,0,11,0.00
2013-6-3,84.1,64.0,45.7,54.4,49.5,42.5,91,65,28,29.75,29.61,10,0,10,0.00
2013-6-4,81.1,64.7,50.2,56.0,50.6,46.0,90,65,31,29.82,29.70,7,0,7,0.00
2013-6-5,83.6,64.1,44.5,55.3,48.2,40.1,89,62,27,29.85,29.78,7,0,7,0.00
2013-6-6,86.5,67.6,49.9,54.1,47.1,37.3,81,51,24,29.80,29.73,10,0,10,0.00
2013-6-7,88.8,69.3,50.2,53.7,48.6,39.0,86,53,26,29.75,29.65,9,0,9,0.00
2013-6-8,91.6,70.2,53.6,57.0,50.9,42.4,82,54,27,29.75,29.61,10,0,10,0.00
2013-6-9,88.6,68.5,52.0,57.3,45.4,18.4,84,51,8,29.78,29.70,12,0,12,0.00
2013-6-10,83.8,64.4,45.7,51.4,44.2,30.8,87,53,17,29.82,29.71,12,1,12,0.00
2013-6-11,94.5,71.4,51.0,54.8,44.0,30.2,77,44,13,29.82,29.75,11,0,11,0.00
2013-6-12,61.6,59.1,57.0,52.9,49.9,43.8,75,72,64,29.77,29.74,0,0,0,0.00
2013-6-13,87.8,67.2,48.8,54.2,48.2,40.1,89,56,24,29.86,29.77,2,0,11,0.00
2013-6-14,89.7,67.8,48.2,52.3,43.1,27.7,83,45,21,29.78,29.69,9,0,9,0.00
2013-6-15,54.7,50.9,47.3,49.7,46.4,42.4,86,85,83,29.73,29.70,0,0,1,0.00
2013-6-16,87.8,66.5,44.3,51.4,43.6,32.9,82,49,19,29.88,29.80,2,0,12,0.00
2013-6-17,89.7,69.8,50.7,51.3,44.5,36.8,68,44,17,29.84,29.74,3,0,11,0.00
2013-6-18,88.4,69.3,52.8,50.0,44.8,38.6,74,46,18,29.77,29.69,2,0,11,0.00
2013-6-19,83.0,65.6,47.7,51.9,46.7,39.1,77,54,27,29.72,29.65,2,0,12,0.00
2013-6-20,88.0,68.1,49.4,48.4,43.1,38.0,75,45,18,29.73,29.65,2,0,14,0.00
2013-6-21,86.5,70.5,49.9,48.4,41.6,31.7,71,39,16,29.76,29.67,11,0,11,0.00
2013-6-22,86.3,67.5,49.5,50.8,45.1,38.6,69,48,23,29.77,29.68,11,0,11,0.00
2013-6-23,82.6,64.8,50.5,55.1,48.4,42.7,85,59,27,29.72,29.65,10,0,10,0.00
2013-6-24,77.0,61.1,52.9,54.6,51.6,48.2,90,73,40,29.85,29.67,10,0,10,0.00
2013-6-25,85.1,67.3,50.8,57.1,53.1,47.4,89,64,33,29.86,29.79,10,0,10,0.00
2013-6-26,95.9,76.2,58.1,57.2,53.2,49.9,80,49,22,29.84,29.77,5,0,11,0.00
2013-6-27,99.4,79.7,61.2,56.5,51.8,46.9,68,42,18,29.88,29.82,10,0,11,0.00
2013-6-28,100.4,80.9,62.1,55.6,48.0,39.4,60,35,15,29.85,29.72,10,0,10,0.00
2013-6-29,105.7,83.1,63.7,57.4,45.2,34.1,49,29,12,29.75,29.60,9,0,9,0.00
2013-6-30,109.3,85.7,67.4,59.3,47.3,33.9,58,30,11,29.63,29.57,12,0,12,0.00
2013-7-1,97.8,82.7,68.4,56.6,51.0,44.0,56,35,20,29.74,29.60,15,0,15,0.00
2013-7-2,99.4,79.1,65.8,56.6,50.9,42.2,64,40,17,29.82,29.72,9,0,9,0.00
2013-7-3,96.1,78.2,67.1,53.4,47.0,40.3,54,35,20,29.80,29.64,9,0,9,0.00
2013-7-4,97.5,78.4,62.1,52.9,47.0,37.7,58,36,19,29.68,29.59,11,0,11,0.00
2013-7-5,94.5,75.5,61.2,55.8,49.2,40.4,74,42,21,29.70,29.59,9,0,9,0.00
2013-7-6,93.2,74.4,59.2,58.2,53.8,45.6,80,53,23,29.68,29.60,9,0,11,0.00
2013-7-7,96.1,76.3,58.4,56.5,48.4,35.4,78,42,15,29.71,29.61,15,0,15,0.00
2013-7-8,79.6,63.8,59.8,49.6,46.0,43.5,61,53,30,29.76,29.69,1,0,1,0.00
2013-7-9,101.7,82.0,65.8,53.4,42.1,30.1,52,26,13,29.84,29.75,2,0,12,0.00
2013-7-10,90.7,76.5,67.6,58.9,53.8,44.4,62,46,30,29.83,29.75,2,0,11,0.00
2013-7-11,79.2,70.6,65.0,60.5,57.1,51.6,82,63,46,29.85,29.74,1,0,7,0.00
2013-7-12,91.8,74.7,60.4,61.9,56.5,52.0,88,58,28,29.80,29.71,2,0,14,0.00
2013-7-13,93.8,75.9,58.3,55.4,50.7,45.8,76,46,20,29.79,29.72,2,0,13,0.00
2013-7-14,96.6,78.9,63.9,56.0,51.0,43.8,63,41,19,29.78,29.67,8,0,11,0.00
2013-7-15,94.0,76.8,62.4,54.0,48.9,37.9,61,41,17,29.71,29.66,11,0,11,0.00
2013-7-16,93.8,73.8,57.3,47.7,37.2,22.5,61,31,9,29.85,29.69,13,0,13,0.00
2013-7-17,94.5,74.0,53.6,44.5,32.5,21.9,56,26,8,29.89,29.83,12,0,12,0.00
2013-7-18,95.9,74.7,56.7,51.6,37.2,23.5,55,28,10,29.86,29.74,5,0,9,0.00
2013-7-19,97.3,76.8,60.7,56.3,48.0,36.9,69,39,18,29.76,29.67,10,0,10,0.00
2013-7-20,85.5,72.3,63.4,72.7,59.8,47.9,88,66,36,29.75,29.63,5,0,5,0.46
2013-7-21,79.8,70.7,65.2,66.6,63.9,61.5,90,80,62,29.80,29.62,6,0,6,0.09
2013-7-22,86.1,72.3,63.4,68.6,62.3,57.6,91,73,44,29.84,29.76,9,0,9,0.02
2013-7-23,88.4,73.1,60.7,62.8,58.0,50.3,89,63,29,29.87,29.79,10,0,10,0.00
2013-7-24,91.2,73.9,60.9,60.5,56.9,52.7,85,59,28,29.82,29.75,5,0,7,0.00
2013-7-25,86.1,68.1,61.5,57.9,54.0,48.8,76,63,32,29.81,29.76,5,0,5,0.00
2013-7-27,92.9,76.8,64.2,61.7,56.9,51.8,80,54,27,29.85,29.71,2,0,11,0.00
2013-7-28,91.0,72.1,58.6,56.5,51.0,33.0,78,52,16,29.77,29.69,2,0,12,0.00
2013-7-29,89.0,71.6,54.4,53.0,46.7,38.4,75,46,20,29.87,29.74,2,0,10,0.00
2013-7-30,89.3,71.4,55.3,53.8,50.2,46.6,74,51,24,29.95,29.86,1,0,9,0.00
2013-7-31,89.0,70.1,54.5,56.2,51.6,47.1,83,56,25,29.94,29.83,2,0,12,0.00
2013-8-1,87.4,67.5,50.1,53.0,45.8,34.7,88,52,16,29.88,29.78,2,0,9,0.00
2013-8-2,88.4,68.9,49.9,50.4,46.5,39.2,78,49,24,29.82,29.76,1,0,14,0.00
2013-8-3,88.2,69.0,51.1,53.7,45.4,31.8,80,48,21,29.86,29.78,7,0,7,0.00
2013-8-4,91.8,71.8,53.8,51.0,44.5,33.7,79,43,14,29.86,29.80,10,0,10,0.00
2013-8-5,93.6,72.9,53.9,49.1,39.0,26.1,65,33,10,29.86,29.79,10,0,10,0.00
2013-8-6,90.3,71.1,53.8,50.0,36.9,22.0,69,34,9,29.88,29.78,11,0,11,0.00
2013-8-7,88.8,70.0,52.5,47.7,38.2,24.4,59,35,10,29.92,29.84,5,0,10,0.00
2013-8-8,90.1,70.5,53.6,45.2,33.8,24.2,60,29,11,29.86,29.77,13,0,13,0.00
2013-8-9,87.6,67.4,49.5,49.7,41.2,29.0,72,42,18,29.83,29.74,9,0,9,0.00
2013-8-10,84.7,67.6,49.2,46.9,42.6,36.5,78,46,20,29.88,29.80,9,0,9,0.00
2013-8-11,88.6,68.9,49.8,49.2,44.3,38.9,70,46,19,29.86,29.77,2,0,10,0.00
2013-8-12,92.3,71.5,52.6,53.0,45.0,38.5,69,44,17,29.83,29.76,1,0,9,0.00
2013-8-13,94.0,73.9,54.1,54.4,46.1,37.5,68,41,17,29.82,29.74,1,0,9,0.00
2013-8-14,99.9,78.8,59.3,56.5,43.5,32.8,66,35,10,29.79,29.67,2,0,10,0.00
2013-8-15,99.7,79.7,64.0,49.4,42.6,34.0,48,29,15,29.79,29.72,2,0,10,0.00
2013-8-16,97.1,79.4,64.2,52.0,47.4,43.2,53,35,18,29.81,29.75,2,0,10,0.00
2013-8-17,99.0,85.5,64.5,52.0,47.9,42.4,57,29,15,29.80,29.67,9,0,9,0.00
2013-8-18,100.4,81.1,66.1,56.1,49.4,44.5,53,36,18,29.72,29.64,9,0,9,0.00
2013-8-19,93.8,79.3,66.0,60.0,54.2,48.7,69,43,27,29.76,29.67,7,0,7,0.00
2013-8-20,96.3,78.4,62.9,56.0,49.5,41.7,71,41,18,29.77,29.69,10,0,10,0.00
2013-8-21,99.4,80.1,62.4,48.4,42.3,33.5,50,29,11,29.77,29.70,13,0,13,0.00
2013-8-22,99.7,81.4,66.4,48.6,41.2,35.2,46,26,13,29.79,29.67,12,0,12,0.00
2013-8-23,98.2,78.8,62.6,47.5,40.9,34.1,47,28,12,29.72,29.60,10,0,10,0.00
2013-8-24,95.9,77.2,61.3,58.8,43.0,27.5,60,32,9,29.73,29.61,16,1,16,0.00
2013-8-25,93.6,76.1,63.7,59.4,52.9,44.4,62,46,25,29.79,29.69,14,1,14,0.00
2013-8-26,81.4,73.3,66.1,63.5,57.4,51.8,69,58,45,29.81,29.70,7,0,7,0.00
2013-8-27,92.7,77.4,64.3,61.8,55.8,51.2,73,50,27,29.74,29.62,14,1,14,0.00
2013-8-28,97.8,80.0,65.8,57.2,54.0,51.9,67,44,23,29.75,29.63,19,0,19,0.00
2013-8-29,94.0,77.9,67.4,66.8,58.8,52.1,72,53,30,29.82,29.73,15,1,15,0.03
2013-8-30,91.8,76.4,68.1,69.8,64.2,59.6,90,68,39,29.85,29.78,11,0,11,0.17
2013-8-31,89.5,76.8,68.8,71.7,66.0,61.7,90,72,44,29.85,29.74,8,0,8,0.01
2013-9-1,93.8,81.1,65.6,65.3,60.5,52.8,87,53,28,29.80,29.70,10,0,10,0.00
2013-9-2,95.1,77.4,62.0,62.0,57.5,51.3,80,54,25,29.79,29.67,12,0,12,0.00
2013-9-3,96.3,81.0,68.4,60.5,56.7,51.8,69,47,24,29.76,29.68,12,0,12,0.00
2013-9-4,99.2,81.4,67.4,59.9,54.6,50.1,66,43,22,29.79,29.71,12,0,12,0.00
2013-9-5,100.2,81.5,69.1,60.7,54.5,50.5,62,42,20,29.76,29.68,13,0,13,0.00
2013-9-6,99.2,81.7,68.1,57.3,50.8,45.6,59,37,18,29.76,29.66,13,0,13,0.00
2013-9-7,93.4,75.9,66.8,67.0,56.0,44.5,85,53,23,29.75,29.68,12,0,12,0.27
2013-9-8,92.7,75.8,60.7,60.2,52.5,39.8,77,49,17,29.75,29.62,9,0,9,0.00
2013-9-9,89.7,74.6,63.9,58.3,51.7,42.0,72,48,21,29.67,29.58,21,1,21,0.04
2013-9-10,87.6,70.9,58.1,55.6,49.8,44.6,75,51,24,29.79,29.65,9,0,14,0.00
2013-9-11,87.2,69.5,55.7,53.9,47.9,39.3,75,50,23,29.86,29.77,9,0,9,0.00
2013-9-12,59.8,58.8,57.8,45.6,43.8,42.2,62,58,55,29.79,29.76,0,0,0,0.00
2013-9-13,94.0,74.1,58.0,48.1,37.3,28.4,47,29,10,29.72,29.56,2,0,9,0.00
2013-9-14,96.3,77.9,61.8,49.4,42.8,39.1,46,31,15,29.62,29.51,2,0,11,0.00
2013-9-15,97.8,78.7,62.9,52.8,45.2,39.1,54,34,14,29.65,29.55,1,0,10,0.00
2013-9-16,96.1,77.5,62.4,48.1,42.1,37.2,50,31,13,29.71,29.59,3,0,12,0.00
2013-9-17,89.0,71.8,55.4,50.4,39.4,32.3,64,34,14,29.69,29.58,2,0,10,0.00
2013-9-18,83.6,69.8,48.5,52.2,44.7,32.8,74,44,22,29.68,29.59,9,0,9,0.00
2013-9-19,89.5,68.8,51.4,55.4,46.8,33.0,83,51,14,29.71,29.62,9,0,9,0.00
2013-9-20,83.2,65.0,51.9,58.2,52.1,42.1,89,65,33,29.75,29.64,5,0,6,0.00
2013-9-21,78.8,62.5,48.2,55.4,49.9,41.0,89,67,30,29.79,29.67,9,0,9,0.00
2013-9-22,75.8,60.8,50.1,52.1,46.5,39.5,86,63,28,29.75,29.63,6,0,9,0.00
2013-9-23,89.9,69.2,48.9,43.0,33.4,26.6,75,32,11,29.79,29.71,12,0,12,0.00
2013-9-24,87.8,68.8,53.8,42.0,34.5,28.6,48,31,13,29.82,29.73,11,0,11,0.00
2013-9-25,78.3,62.0,49.6,48.7,36.5,24.3,81,41,22,29.73,29.58,11,1,11,0.00
2013-9-26,70.3,56.4,44.6,49.4,42.1,29.0,81,61,24,29.82,29.57,12,0,12,0.00
2013-9-27,77.7,58.6,40.9,35.1,23.5,15.3,67,31,11,29.93,29.78,12,0,12,0.00
2013-9-28,84.1,64.4,46.2,28.7,18.9,10.5,29,19,8,29.98,29.87,15,0,15,0.00
2013-9-29,85.7,65.9,50.1,33.7,23.0,16.4,39,22,9,30.00,29.87,10,0,10,0.00
2013-9-30,87.4,66.2,49.6,43.3,28.6,18.3,47,27,11,29.89,29.76,7,0,10,0.00
2013-10-1,85.5,65.7,49.4,48.1,36.3,29.6,67,37,15,29.84,29.75,9,0,9,0.00
2013-10-2,79.6,63.0,49.6,52.6,43.9,30.7,86,53,26,29.85,29.74,7,0,7,0.00
2013-10-3,71.8,59.9,51.7,52.5,48.5,42.5,86,68,36,29.81,29.68,9,0,9,0.00
2013-10-4,80.3,60.2,45.5,49.5,24.7,4.4,87,35,6,30.00,29.76,14,0,14,0.00
2013-10-5,82.0,61.1,42.9,24.6,14.4,7.8,31,17,8,30.08,29.98,9,0,9,0.00
2013-10-6,87.4,64.6,46.2,24.5,12.3,4.4,23,14,6,30.07,29.88,7,0,7,0.00
2013-10-7,84.0,65.4,49.9,34.3,19.5,10.0,46,19,7,29.92,29.79,10,0,10,0.00
2013-10-8,75.6,58.8,45.1,48.8,32.4,19.0,85,42,14,29.82,29.67,10,0,10,0.00
2013-10-9,57.0,48.5,41.6,46.6,42.6,38.0,89,80,57,29.71,29.62,13,0,13,0.72
2013-10-10,61.0,47.2,36.3,45.2,39.1,33.1,90,75,47,29.94,29.71,8,0,8,0.01
2013-10-11,72.7,55.1,40.8,47.6,39.5,35.2,88,60,27,29.96,29.85,7,0,7,0.00
2013-10-12,74.4,57.7,44.9,45.3,39.6,31.4,81,55,25,29.87,29.79,9,0,9,0.00
2013-10-13,68.3,53.5,41.8,48.5,41.5,35.2,89,67,34,29.93,29.80,7,0,7,0.00
2013-10-14,77.0,58.4,40.9,39.4,30.5,21.7,84,40,16,29.96,29.84,13,0,13,0.00
2013-10-15,77.9,60.4,45.2,34.3,26.8,19.3,52,31,13,29.91,29.80,12,0,12,0.00
2013-10-16,76.8,59.1,43.6,30.7,22.8,16.5,45,27,11,30.02,29.89,10,0,10,0.00
2013-10-17,78.5,59.2,43.5,36.3,26.2,16.1,55,32,12,29.99,29.84,10,0,10,0.00
2013-10-18,84.0,62.0,44.3,33.7,26.5,18.1,54,30,11,29.95,29.85,6,0,6,0.00
2013-10-19,84.9,64.1,47.6,36.2,22.8,10.7,41,24,7,29.97,29.85,7,0,7,0.00
2013-10-20,81.1,62.1,45.7,35.1,25.2,16.1,44,26,11,29.91,29.80,10,0,10,0.00
2013-10-21,83.6,62.5,46.8,36.5,25.8,16.1,41,27,11,29.89,29.80,6,0,6,0.00
2013-10-22,85.7,65.0,49.8,41.4,26.2,15.7,45,25,8,29.93,29.78,12,0,12,0.00
2013-10-23,78.8,60.4,49.8,52.1,37.3,19.1,89,47,15,29.83,29.76,6,0,6,0.00
2013-10-24,70.1,54.9,45.1,51.5,46.6,41.3,89,75,48,29.96,29.81,5,0,5,0.00
2013-10-25,82.0,61.1,44.1,46.6,35.2,25.0,85,43,16,30.01,29.92,5,0,5,0.00
2013-10-26,86.7,67.8,52.0,40.2,27.3,19.4,38,23,11,30.01,29.85,11,0,11,0.00
2013-10-27,80.7,62.8,50.7,49.4,33.2,20.0,85,39,11,29.85,29.67,10,0,11,0.00
2013-10-28,57.5,49.3,42.8,47.5,43.9,39.5,88,82,58,29.86,29.66,12,0,16,0.16
2013-10-29,55.7,47.5,38.9,45.9,40.3,35.6,89,77,52,29.92,29.84,6,0,7,0.01
2013-10-30,63.4,48.2,36.9,43.7,37.0,32.1,89,68,32,29.99,29.89,7,0,7,0.00
2013-10-31,74.6,54.7,39.5,38.2,27.4,17.6,72,40,13,30.04,29.92,9,0,9,0.00
2013-11-1,79.8,59.6,44.2,33.2,26.1,21.8,47,30,13,30.07,29.89,6,0,6,0.00
2013-11-2,76.8,58.5,44.6,33.8,26.3,16.7,54,32,11,29.93,29.76,7,0,10,0.00
2013-11-3,67.4,52.0,40.6,44.3,35.7,25.9,85,56,28,29.83,29.70,6,0,6,0.00
2013-11-4,56.7,49.6,41.8,46.7,43.1,37.9,87,78,64,29.87,29.67,5,0,5,0.00
2013-11-5,68.8,49.9,36.6,41.0,21.7,9.0,88,41,11,30.11,29.86,12,0,12,0.00
2013-11-6,76.0,55.3,38.8,23.0,11.2,1.5,33,19,7,30.19,30.03,5,0,5,0.00
2013-11-7,79.4,59.9,46.5,29.8,15.8,7.6,31,19,7,30.09,29.91,5,0,11,0.00
2013-11-8,78.1,58.8,45.7,31.4,16.3,10.3,37,20,8,29.98,29.85,6,0,6,0.00
2013-11-9,76.5,56.8,42.6,28.8,16.6,8.2,35,22,8,30.03,29.88,5,0,5,0.00
2013-11-10,75.3,58.8,47.7,24.6,16.5,4.6,32,20,11,30.05,29.93,7,0,7,0.00
2013-11-11,79.8,60.6,46.2,30.0,21.9,14.4,38,24,11,30.06,29.93,9,0,9,0.00
2013-11-12,77.7,63.8,50.7,37.0,25.5,18.8,35,24,12,30.09,29.99,3,0,3,0.00
2013-11-13,57.0,54.7,53.2,25.7,23.8,22.0,32,30,27,29.99,29.97,0,0,0,0.00
2013-11-14,82.0,63.6,51.1,28.1,23.6,18.0,36,23,10,29.90,29.63,7,0,9,0.00
2013-11-15,58.6,52.6,47.4,47.0,40.5,24.9,84,65,31,29.68,29.57,10,0,10,0.00
2013-11-16,51.0,48.8,46.0,46.5,45.0,42.7,89,87,82,29.86,29.65,6,0,6,0.12
2013-11-17,62.9,49.4,39.6,47.7,42.0,36.6,90,77,50,30.01,29.85,5,0,5,0.00
2013-11-18,63.5,44.5,39.6,47.1,39.4,35.8,88,83,49,30.07,29.95,2,0,6,0.01
2013-11-19,53.1,49.7,46.0,47.0,44.6,42.5,89,83,75,29.96,29.86,6,0,6,0.00
2013-11-20,55.1,50.2,46.5,48.5,45.5,42.8,90,84,68,29.87,29.80,3,0,3,0.04
2013-11-21,54.1,49.7,45.1,51.2,46.7,42.1,90,89,88,29.80,29.74,5,0,6,0.79
2013-11-22,50.1,43.1,38.5,44.0,38.6,34.4,89,84,62,29.89,29.76,4,0,5,0.10
2013-11-23,52.8,43.4,35.3,42.1,36.0,31.5,89,76,56,30.01,29.88,6,0,6,0.00
2013-11-24,58.0,44.7,35.5,39.4,35.0,31.5,88,71,42,30.13,30.00,8,0,8,0.01
2013-11-25,65.8,49.0,36.8,38.7,34.2,28.3,83,60,27,30.18,30.08,7,0,7,0.00
2013-11-26,69.1,53.2,41.8,38.8,32.5,26.1,69,48,24,30.15,29.96,7,0,7,0.00
2013-11-27,66.6,52.1,41.3,41.3,32.0,27.7,67,48,25,29.97,29.79,6,0,6,0.00
2013-11-28,63.1,48.8,39.6,36.8,30.7,26.3,70,52,27,30.00,29.82,10,0,10,0.00
2013-11-29,58.9,49.0,41.1,47.3,38.3,29.7,86,68,33,30.10,29.97,4,0,6,0.07
2013-11-30,67.6,52.7,42.2,46.9,39.1,34.1,84,62,33,30.12,30.00,6,0,6,0.00
2013-12-1,70.3,53.8,43.3,42.0,31.4,23.3,66,45,19,30.17,30.04,6,0,6,0.00
2013-12-2,69.9,53.4,42.6,38.0,26.2,20.7,52,36,17,30.08,29.81,6,0,6,0.00
2013-12-3,60.2,49.8,39.8,44.6,34.4,22.9,88,59,25,29.82,29.63,12,0,12,0.00
2013-12-4,52.8,43.6,33.8,44.3,30.7,16.3,88,64,25,29.89,29.62,7,0,7,0.00
2013-12-5,49.8,40.6,31.9,33.6,29.3,21.8,81,65,35,30.03,29.84,6,0,8,0.00
2013-12-6,47.0,39.9,30.3,33.3,29.8,25.0,83,68,46,30.10,30.01,9,0,9,0.00
2013-12-7,42.5,39.5,36.9,39.0,34.7,31.4,88,83,74,30.03,29.93,5,0,5,0.34
2013-12-8,45.7,38.5,31.9,34.7,31.7,27.6,87,77,56,30.13,30.00,8,0,8,0.01
2013-12-9,51.7,35.5,26.9,27.6,18.0,3.8,86,54,17,30.31,30.11,7,0,7,0.00
2013-12-10,56.9,39.9,27.0,21.0,14.2,4.6,65,38,15,30.24,30.06,6,0,6,0.00
2013-12-11,63.7,46.6,33.7,24.3,16.3,6.0,47,32,13,30.17,30.04,5,0,5,0.00
2013-12-12,62.0,46.4,36.2,27.4,20.5,11.9,63,38,18,30.17,30.05,9,0,9,0.00
2013-12-13,59.9,44.6,33.7,29.9,24.9,19.2,65,48,26,30.17,30.05,9,0,9,0.00
2013-12-14,65.3,48.3,37.2,25.7,19.0,15.0,47,33,15,30.27,30.13,9,0,9,0.00
2013-12-15,73.5,53.3,38.8,27.9,18.7,10.6,42,27,12,30.23,30.06,6,0,6,0.00
2013-12-16,78.5,59.1,46.8,36.2,25.0,17.7,39,29,12,30.11,30.00,5,0,5,0.00
2013-12-17,78.8,61.4,50.5,39.1,26.7,21.7,43,28,13,30.08,29.86,6,0,6,0.00
2013-12-18,70.9,56.6,39.9,38.9,26.5,20.3,78,33,16,29.91,29.72,11,0,11,0.00
2013-12-19,46.1,42.5,36.2,41.5,38.5,33.1,89,86,74,29.74,29.62,9,0,9,0.22
2013-12-20,55.3,41.3,32.1,38.3,32.2,28.8,89,72,40,29.88,29.68,7,0,7,0.01
2013-12-21,52.5,40.9,32.7,40.3,34.8,29.0,88,79,59,30.02,29.83,16,0,16,0.00
2013-12-22,63.7,47.3,35.0,36.5,30.8,25.9,83,55,26,30.22,30.01,8,0,8,0.00
2013-12-23,66.1,50.3,39.3,34.8,29.9,26.9,66,48,25,30.28,30.14,4,0,6,0.00
2013-12-24,72.5,54.2,42.1,35.8,27.5,22.3,57,38,17,30.18,30.04,7,0,7,0.00
2013-12-25,69.8,51.5,40.9,27.6,21.8,12.8,53,33,14,30.21,30.07,5,0,5,0.00
2013-12-26,69.3,51.2,38.5,21.9,12.8,4.9,37,23,10,30.17,30.03,7,0,7,0.00
2013-12-27,74.0,54.7,41.8,20.7,12.0,0.6,28,20,7,30.16,29.97,4,0,9,0.00
2013-12-28,70.3,55.3,45.7,32.2,15.0,2.2,38,21,10,29.99,29.84,19,0,19,0.00
2013-12-29,65.5,54.4,40.6,14.0,7.3,-8.7,28,16,6,30.09,29.84,39,2,39,0.00
2013-12-30,68.3,49.7,37.3,16.3,7.1,-1.3,28,19,7,30.22,30.07,4,0,4,0.00
2013-12-31,70.1,51.4,40.1,22.8,11.8,6.3,30,21,10,30.16,30.01,7,0,7,0.00
2014-1-1,73.5,54.9,41.2,24.0,15.6,8.6,33,23,10,30.07,29.97,5,0,5,0.00
2014-1-2,73.7,55.7,44.1,30.2,21.0,16.6,42,27,14,30.08,29.92,5,0,7,0.00